Cold Spring, Minnesota
Current Conditions -  °F | °C
As of 12:34 PM on Wednesday 26 Nov 2014 (Local Time) from KPEX Reporting Station
Overcast Overcast  
Wind Chill:   Ceiling: 1600
Heat Index: 19°   Visibility: 10mi
Dew Point: 14°   Wind: 10mph
Humidity: 81%   Direction: 320°NW
Pressure: 30.22"   Gusts: NA
Location:  45.46°N, 94.43°W
Report Text: KPEX 261834Z AUTO 32009KT 10SM OVC016 M07/M10 A3022 RMK AO2 T10721099
Loading
Personal Weather Stations






























Interactive Weather Map New forecast layout! Learn more

10-Day Weather Forecast

Advertisements
Track Severe Weather on mobile